sensor_id;sensor_type;location;lat;lon;timestamp;pressure;altitude;pressure_sealevel;temperature;humidity
34297;BME280;20564;42.902;25.336;2023-07-24T00:01:10;97396.41;;;18.11;100.00
34297;BME280;20564;42.902;25.336;2023-07-24T00:03:37;97390.28;;;18.10;100.00
34297;BME280;20564;42.902;25.336;2023-07-24T00:06:04;97391.72;;;18.13;100.00
34297;BME280;20564;42.902;25.336;2023-07-24T00:08:31;97391.91;;;18.11;100.00
34297;BME280;20564;42.902;25.336;2023-07-24T00:10:58;97390.16;;;18.03;100.00
34297;BME280;20564;42.902;25.336;2023-07-24T00:13:26;97389.69;;;18.00;100.00
34297;BME280;20564;42.902;25.336;2023-07-24T00:15:52;97385.19;;;18.00;100.00
34297;BME280;20564;42.902;25.336;2023-07-24T00:18:20;97385.19;;;18.00;100.00
34297;BME280;20564;42.902;25.336;2023-07-24T00:20:46;97384.84;;;18.03;100.00
34297;BME280;20564;42.902;25.336;2023-07-24T00:23:13;97374.34;;;17.87;100.00
34297;BME280;20564;42.902;25.336;2023-07-24T00:25:40;97380.88;;;17.85;100.00
34297;BME280;20564;42.902;25.336;2023-07-24T00:28:07;97382.41;;;17.79;100.00
34297;BME280;20564;42.902;25.336;2023-07-24T00:30:34;97377.09;;;17.79;100.00
34297;BME280;20564;42.902;25.336;2023-07-24T00:33:01;97391.88;;;17.81;100.00
34297;BME280;20564;42.902;25.336;2023-07-24T00:35:28;97383.09;;;17.73;100.00
34297;BME280;20564;42.902;25.336;2023-07-24T00:37:55;97385.47;;;17.68;100.00
34297;BME280;20564;42.902;25.336;2023-07-24T00:40:22;97383.00;;;17.66;100.00
34297;BME280;20564;42.902;25.336;2023-07-24T00:42:49;97386.84;;;17.64;100.00
34297;BME280;20564;42.902;25.336;2023-07-24T00:45:16;97382.88;;;17.59;100.00
34297;BME280;20564;42.902;25.336;2023-07-24T00:47:43;97378.09;;;17.55;100.00
34297;BME280;20564;42.902;25.336;2023-07-24T00:50:11;97388.91;;;17.53;100.00
34297;BME280;20564;42.902;25.336;2023-07-24T00:52:40;97382.59;;;17.54;100.00
34297;BME280;20564;42.902;25.336;2023-07-24T00:55:09;97378.09;;;17.55;100.00
34297;BME280;20564;42.902;25.336;2023-07-24T00:57:37;97380.75;;;17.55;100.00
34297;BME280;20564;42.902;25.336;2023-07-24T01:00:05;97381.13;;;17.52;100.00
34297;BME280;20564;42.902;25.336;2023-07-24T01:02:32;97371.78;;;17.56;100.00
34297;BME280;20564;42.902;25.336;2023-07-24T01:04:59;97383.31;;;17.48;100.00
34297;BME280;20564;42.902;25.336;2023-07-24T01:07:26;97374.88;;;17.45;100.00
34297;BME280;20564;42.902;25.336;2023-07-24T01:09:53;97380.06;;;17.38;100.00
34297;BME280;20564;42.902;25.336;2023-07-24T01:18:20;97378.47;;;17.29;100.00
34297;BME280;20564;42.902;25.336;2023-07-24T01:20:53;97385.03;;;17.18;100.00
34297;BME280;20564;42.902;25.336;2023-07-24T01:26:46;97376.63;;;17.06;100.00
34297;BME280;20564;42.902;25.336;2023-07-24T01:29:13;97391.13;;;17.04;100.00
34297;BME280;20564;42.902;25.336;2023-07-24T01:31:41;97382.28;;;17.03;100.00
34297;BME280;20564;42.902;25.336;2023-07-24T01:34:08;97382.47;;;17.02;100.00
34297;BME280;20564;42.902;25.336;2023-07-24T01:36:35;97383.50;;;17.01;100.00
34297;BME280;20564;42.902;25.336;2023-07-24T01:39:02;97385.50;;;16.99;100.00
34297;BME280;20564;42.902;25.336;2023-07-24T01:41:30;97381.00;;;16.99;100.00
34297;BME280;20564;42.902;25.336;2023-07-24T01:44:00;97384.00;;;16.96;100.00
34297;BME280;20564;42.902;25.336;2023-07-24T01:46:27;97375.38;;;16.94;100.00
34297;BME280;20564;42.902;25.336;2023-07-24T01:48:55;97382.06;;;16.90;100.00
34297;BME280;20564;42.902;25.336;2023-07-24T01:51:22;97381.06;;;16.91;100.00
34297;BME280;20564;42.902;25.336;2023-07-24T01:53:49;97379.88;;;16.94;100.00
34297;BME280;20564;42.902;25.336;2023-07-24T01:56:16;97380.88;;;16.93;100.00
34297;BME280;20564;42.902;25.336;2023-07-24T01:58:43;97382.41;;;16.87;100.00
34297;BME280;20564;42.902;25.336;2023-07-24T02:01:10;97384.06;;;16.88;100.00
34297;BME280;20564;42.902;25.336;2023-07-24T02:03:37;97377.38;;;16.92;100.00
34297;BME280;20564;42.902;25.336;2023-07-24T02:06:06;97382.00;;;16.98;100.00
34297;BME280;20564;42.902;25.336;2023-07-24T02:08:33;97385.00;;;16.95;100.00
34297;BME280;20564;42.902;25.336;2023-07-24T02:11:00;97385.00;;;16.95;100.00
34297;BME280;20564;42.902;25.336;2023-07-24T02:13:27;97386.38;;;16.91;100.00
34297;BME280;20564;42.902;25.336;2023-07-24T02:15:54;97387.06;;;16.85;100.00
34297;BME280;20564;42.902;25.336;2023-07-24T02:18:21;97386.78;;;16.80;100.00
34297;BME280;20564;42.902;25.336;2023-07-24T02:20:51;97381.44;;;16.80;100.00
34297;BME280;20564;42.902;25.336;2023-07-24T02:23:19;97391.06;;;16.81;100.00
34297;BME280;20564;42.902;25.336;2023-07-24T02:25:50;97381.78;;;16.77;100.00
34297;BME280;20564;42.902;25.336;2023-07-24T02:28:18;97380.47;;;16.73;100.00
34297;BME280;20564;42.902;25.336;2023-07-24T02:30:46;97379.47;;;16.74;100.00
34297;BME280;20564;42.902;25.336;2023-07-24T02:33:14;97373.50;;;16.72;100.00
34297;BME280;20564;42.902;25.336;2023-07-24T02:35:44;97384.47;;;16.69;100.00
34297;BME280;20564;42.902;25.336;2023-07-24T02:38:11;97381.19;;;16.58;100.00
34297;BME280;20564;42.902;25.336;2023-07-24T02:40:40;97376.53;;;16.60;100.00
34297;BME280;20564;42.902;25.336;2023-07-24T02:43:07;97382.69;;;16.61;100.00
34297;BME280;20564;42.902;25.336;2023-07-24T02:45:36;97373.22;;;16.58;100.00
34297;BME280;20564;42.902;25.336;2023-07-24T02:48:04;97374.38;;;16.56;100.00
34297;BME280;20564;42.902;25.336;2023-07-24T02:50:41;97382.25;;;16.49;100.00
34297;BME280;20564;42.902;25.336;2023-07-24T02:53:08;97382.25;;;16.49;100.00
34297;BME280;20564;42.902;25.336;2023-07-24T02:55:34;97384.03;;;16.49;100.00
34297;BME280;20564;42.902;25.336;2023-07-24T02:58:01;97387.41;;;16.43;100.00
34297;BME280;20564;42.902;25.336;2023-07-24T03:00:28;97388.88;;;16.45;100.00
34297;BME280;20564;42.902;25.336;2023-07-24T03:02:55;97388.38;;;16.42;100.00
34297;BME280;20564;42.902;25.336;2023-07-24T03:05:22;97379.78;;;16.39;100.00
34297;BME280;20564;42.902;25.336;2023-07-24T03:07:49;97384.28;;;16.39;100.00
34297;BME280;20564;42.902;25.336;2023-07-24T03:10:16;97377.28;;;16.38;100.00
34297;BME280;20564;42.902;25.336;2023-07-24T03:12:43;97382.97;;;16.35;100.00
34297;BME280;20564;42.902;25.336;2023-07-24T03:15:10;97377.66;;;16.35;100.00
34297;BME280;20564;42.902;25.336;2023-07-24T03:17:37;97384.28;;;16.39;100.00
34297;BME280;20564;42.902;25.336;2023-07-24T03:20:18;97382.97;;;16.35;100.00
34297;BME280;20564;42.902;25.336;2023-07-24T03:22:45;97386.25;;;16.37;100.00
34297;BME280;20564;42.902;25.336;2023-07-24T03:25:13;97386.09;;;16.38;100.00
34297;BME280;20564;42.902;25.336;2023-07-24T03:27:40;97386.25;;;16.37;100.00
34297;BME280;20564;42.902;25.336;2023-07-24T03:30:07;97386.88;;;16.47;100.00
34297;BME280;20564;42.902;25.336;2023-07-24T03:32:36;97387.22;;;16.44;100.00
34297;BME280;20564;42.902;25.336;2023-07-24T03:35:05;97378.63;;;16.42;100.00
34297;BME280;20564;42.902;25.336;2023-07-24T03:37:34;97389.88;;;16.44;100.00
34297;BME280;20564;42.902;25.336;2023-07-24T03:40:11;97381.56;;;16.47;100.00
34297;BME280;20564;42.902;25.336;2023-07-24T03:42:39;97385.53;;;16.51;100.00
34297;BME280;20564;42.902;25.336;2023-07-24T03:45:06;97377.53;;;16.59;100.00
34297;BME280;20564;42.902;25.336;2023-07-24T03:47:33;97372.19;;;16.68;100.00
34297;BME280;20564;42.902;25.336;2023-07-24T03:50:00;97371.81;;;16.71;100.00
34297;BME280;20564;42.902;25.336;2023-07-24T03:52:27;97376.16;;;16.72;100.00
34297;BME280;20564;42.902;25.336;2023-07-24T03:54:54;97366.19;;;16.74;100.00
34297;BME280;20564;42.902;25.336;2023-07-24T03:57:35;97363.84;;;16.79;100.00
34297;BME280;20564;42.902;25.336;2023-07-24T04:00:02;97374.78;;;16.84;100.00
34297;BME280;20564;42.902;25.336;2023-07-24T04:02:29;97369.59;;;16.91;100.00
34297;BME280;20564;42.902;25.336;2023-07-24T04:04:56;97374.69;;;17.00;100.00
34297;BME280;20564;42.902;25.336;2023-07-24T04:07:23;97375.47;;;17.09;100.00
34297;BME280;20564;42.902;25.336;2023-07-24T04:09:50;97375.88;;;17.21;100.00
34297;BME280;20564;42.902;25.336;2023-07-24T04:12:17;97375.44;;;17.32;100.00
34297;BME280;20564;42.902;25.336;2023-07-24T04:14:44;97383.00;;;17.43;100.00
34297;BME280;20564;42.902;25.336;2023-07-24T04:17:11;97373.16;;;17.52;100.00
34297;BME280;20564;42.902;25.336;2023-07-24T04:19:38;97377.38;;;17.61;100.00
34297;BME280;20564;42.902;25.336;2023-07-24T04:22:05;97373.09;;;17.75;100.00
34297;BME280;20564;42.902;25.336;2023-07-24T04:24:32;97371.59;;;17.95;100.00
34297;BME280;20564;42.902;25.336;2023-07-24T04:26:59;97367.94;;;18.26;100.00
34297;BME280;20564;42.902;25.336;2023-07-24T04:29:26;97366.25;;;18.54;100.00
34297;BME280;20564;42.902;25.336;2023-07-24T04:31:53;97358.47;;;18.89;100.00
34297;BME280;20564;42.902;25.336;2023-07-24T04:34:20;97355.97;;;19.24;100.00
34297;BME280;20564;42.902;25.336;2023-07-24T04:36:47;97370.19;;;19.52;100.00
34297;BME280;20564;42.902;25.336;2023-07-24T04:39:13;97364.72;;;19.82;100.00
34297;BME280;20564;42.902;25.336;2023-07-24T04:41:40;97366.56;;;20.16;100.00
34297;BME280;20564;42.902;25.336;2023-07-24T04:44:07;97367.78;;;20.48;100.00
34297;BME280;20564;42.902;25.336;2023-07-24T04:46:34;97354.97;;;20.79;100.00
34297;BME280;20564;42.902;25.336;2023-07-24T04:49:01;97358.13;;;21.09;100.00
34297;BME280;20564;42.902;25.336;2023-07-24T04:51:28;97351.00;;;21.42;98.46
34297;BME280;20564;42.902;25.336;2023-07-24T04:53:55;97344.22;;;21.73;97.74
34297;BME280;20564;42.902;25.336;2023-07-24T04:56:22;97344.41;;;21.98;96.81
34297;BME280;20564;42.902;25.336;2023-07-24T04:58:49;97346.41;;;22.29;95.34
34297;BME280;20564;42.902;25.336;2023-07-24T05:01:16;97351.69;;;22.56;93.77
34297;BME280;20564;42.902;25.336;2023-07-24T05:03:43;97360.25;;;22.78;92.77
34297;BME280;20564;42.902;25.336;2023-07-24T05:06:10;97357.69;;;23.03;92.55
34297;BME280;20564;42.902;25.336;2023-07-24T05:08:37;97359.78;;;23.32;89.27
34297;BME280;20564;42.902;25.336;2023-07-24T05:11:06;97365.56;;;23.61;85.79
34297;BME280;20564;42.902;25.336;2023-07-24T05:13:33;97353.88;;;23.80;84.29
34297;BME280;20564;42.902;25.336;2023-07-24T05:16:00;97353.44;;;24.02;82.75
34297;BME280;20564;42.902;25.336;2023-07-24T05:18:27;97351.31;;;24.11;82.44
34297;BME280;20564;42.902;25.336;2023-07-24T05:20:54;97345.13;;;24.28;81.49
34297;BME280;20564;42.902;25.336;2023-07-24T05:23:21;97345.75;;;24.49;79.31
34297;BME280;20564;42.902;25.336;2023-07-24T05:25:58;97341.41;;;24.66;76.64
34297;BME280;20564;42.902;25.336;2023-07-24T05:28:26;97342.56;;;24.89;75.54
34297;BME280;20564;42.902;25.336;2023-07-24T05:30:53;97350.53;;;24.95;76.84
34297;BME280;20564;42.902;25.336;2023-07-24T05:33:20;97346.94;;;25.20;75.98
34297;BME280;20564;42.902;25.336;2023-07-24T05:35:50;97353.06;;;25.39;74.57
34297;BME280;20564;42.902;25.336;2023-07-24T05:38:17;97357.91;;;25.60;74.34
34297;BME280;20564;42.902;25.336;2023-07-24T05:40:44;97351.41;;;25.80;75.50
34297;BME280;20564;42.902;25.336;2023-07-24T05:43:11;97359.84;;;25.95;71.57
34297;BME280;20564;42.902;25.336;2023-07-24T05:45:37;97351.41;;;26.03;67.92
34297;BME280;20564;42.902;25.336;2023-07-24T05:48:05;97356.44;;;26.23;68.45
34297;BME280;20564;42.902;25.336;2023-07-24T05:50:32;97339.41;;;26.46;68.82
34297;BME280;20564;42.902;25.336;2023-07-24T05:52:59;97339.63;;;26.56;65.00
34297;BME280;20564;42.902;25.336;2023-07-24T05:55:26;97338.06;;;26.72;64.98
34297;BME280;20564;42.902;25.336;2023-07-24T05:57:54;97336.00;;;26.91;65.88
34297;BME280;20564;42.902;25.336;2023-07-24T06:00:21;97333.09;;;27.09;64.01
34297;BME280;20564;42.902;25.336;2023-07-24T06:02:48;97323.84;;;27.34;64.07
34297;BME280;20564;42.902;25.336;2023-07-24T06:05:15;97328.13;;;27.47;63.03
34297;BME280;20564;42.902;25.336;2023-07-24T06:07:42;97318.28;;;27.57;62.06
34297;BME280;20564;42.902;25.336;2023-07-24T06:10:09;97324.03;;;27.78;63.42
34297;BME280;20564;42.902;25.336;2023-07-24T06:12:37;97316.50;;;27.80;60.29
34297;BME280;20564;42.902;25.336;2023-07-24T06:15:05;97316.78;;;28.00;59.88
34297;BME280;20564;42.902;25.336;2023-07-24T06:17:32;97319.09;;;28.08;59.79
34297;BME280;20564;42.902;25.336;2023-07-24T06:19:59;97311.69;;;28.21;60.15
34297;BME280;20564;42.902;25.336;2023-07-24T06:22:26;97304.56;;;28.36;60.02
34297;BME280;20564;42.902;25.336;2023-07-24T06:24:53;97306.19;;;28.54;59.43
34297;BME280;20564;42.902;25.336;2023-07-24T06:27:23;97309.06;;;28.70;59.69
34297;BME280;20564;42.902;25.336;2023-07-24T06:29:49;97307.56;;;28.79;59.70
34297;BME280;20564;42.902;25.336;2023-07-24T06:32:21;97296.03;;;29.16;56.24
34297;BME280;20564;42.902;25.336;2023-07-24T06:34:48;97301.13;;;29.39;56.21
34297;BME280;20564;42.902;25.336;2023-07-24T06:37:14;97299.22;;;29.72;55.53
34297;BME280;20564;42.902;25.336;2023-07-24T06:39:48;97297.78;;;30.01;53.64
34297;BME280;20564;42.902;25.336;2023-07-24T06:42:15;97302.06;;;30.24;52.55
34297;BME280;20564;42.902;25.336;2023-07-24T06:44:42;97307.31;;;30.46;52.12
34297;BME280;20564;42.902;25.336;2023-07-24T06:47:09;97294.84;;;30.56;51.73
34297;BME280;20564;42.902;25.336;2023-07-24T06:49:36;97296.03;;;30.80;50.79
34297;BME280;20564;42.902;25.336;2023-07-24T06:52:03;97289.75;;;30.74;51.07
34297;BME280;20564;42.902;25.336;2023-07-24T06:54:30;97285.19;;;30.85;50.40
34297;BME280;20564;42.902;25.336;2023-07-24T06:56:57;97282.47;;;31.01;51.10
34297;BME280;20564;42.902;25.336;2023-07-24T06:59:24;97275.94;;;30.96;50.17
34297;BME280;20564;42.902;25.336;2023-07-24T07:01:51;97271.59;;;31.01;49.17
34297;BME280;20564;42.902;25.336;2023-07-24T07:04:18;97270.00;;;31.25;50.52
34297;BME280;20564;42.902;25.336;2023-07-24T07:06:44;97258.91;;;31.52;48.60
34297;BME280;20564;42.902;25.336;2023-07-24T07:09:12;97266.22;;;31.82;48.16
34297;BME280;20564;42.902;25.336;2023-07-24T07:11:38;97261.81;;;32.07;47.45
34297;BME280;20564;42.902;25.336;2023-07-24T07:14:05;97265.31;;;32.23;47.72
34297;BME280;20564;42.902;25.336;2023-07-24T07:16:35;97263.53;;;32.57;48.16
34297;BME280;20564;42.902;25.336;2023-07-24T07:19:02;97266.72;;;32.75;46.03
34297;BME280;20564;42.902;25.336;2023-07-24T07:21:29;97261.50;;;32.83;48.22
34297;BME280;20564;42.902;25.336;2023-07-24T07:23:56;97261.59;;;33.12;46.47
34297;BME280;20564;42.902;25.336;2023-07-24T07:26:23;97261.78;;;33.26;45.68
34297;BME280;20564;42.902;25.336;2023-07-24T07:28:49;97263.31;;;33.37;45.70
34297;BME280;20564;42.902;25.336;2023-07-24T07:31:17;97255.03;;;33.53;44.15
34297;BME280;20564;42.902;25.336;2023-07-24T07:33:44;97259.34;;;33.88;44.53
34297;BME280;20564;42.902;25.336;2023-07-24T07:36:11;97265.91;;;34.16;43.52
34297;BME280;20564;42.902;25.336;2023-07-24T07:38:39;97265.03;;;34.45;43.97
34297;BME280;20564;42.902;25.336;2023-07-24T07:41:06;97261.69;;;34.72;41.15
34297;BME280;20564;42.902;25.336;2023-07-24T07:43:33;97262.72;;;34.95;39.81
34297;BME280;20564;42.902;25.336;2023-07-24T07:46:02;97253.72;;;35.13;38.54
34297;BME280;20564;42.902;25.336;2023-07-24T07:48:30;97260.28;;;35.31;38.92
34297;BME280;20564;42.902;25.336;2023-07-24T07:50:56;97251.00;;;35.46;36.70
34297;BME280;20564;42.902;25.336;2023-07-24T07:53:23;97251.84;;;35.27;34.93
34297;BME280;20564;42.902;25.336;2023-07-24T07:55:57;97237.22;;;35.18;32.59
34297;BME280;20564;42.902;25.336;2023-07-24T07:58:24;97238.25;;;35.22;33.78
34297;BME280;20564;42.902;25.336;2023-07-24T08:00:51;97238.94;;;35.14;33.13
34297;BME280;20564;42.902;25.336;2023-07-24T08:03:18;97231.97;;;35.03;32.79
34297;BME280;20564;42.902;25.336;2023-07-24T08:05:45;97238.50;;;35.07;33.72
34297;BME280;20564;42.902;25.336;2023-07-24T08:08:12;97237.59;;;34.93;31.58
34297;BME280;20564;42.902;25.336;2023-07-24T08:10:39;97241.81;;;34.85;31.50
34297;BME280;20564;42.902;25.336;2023-07-24T08:13:06;97240.56;;;34.96;35.73
34297;BME280;20564;42.902;25.336;2023-07-24T08:15:37;97234.66;;;35.08;36.54
34297;BME280;20564;42.902;25.336;2023-07-24T08:18:05;97219.91;;;35.23;32.30
34297;BME280;20564;42.902;25.336;2023-07-24T08:20:35;97229.78;;;35.38;33.53
34297;BME280;20564;42.902;25.336;2023-07-24T08:23:02;97221.84;;;35.22;32.19
34297;BME280;20564;42.902;25.336;2023-07-24T08:25:29;97226.19;;;35.23;34.22
34297;BME280;20564;42.902;25.336;2023-07-24T08:27:56;97218.41;;;35.31;32.68
34297;BME280;20564;42.902;25.336;2023-07-24T08:30:41;97220.38;;;35.44;31.73
34297;BME280;20564;42.902;25.336;2023-07-24T08:33:07;97226.94;;;35.62;34.66
34297;BME280;20564;42.902;25.336;2023-07-24T08:35:34;97222.69;;;35.69;32.62
34297;BME280;20564;42.902;25.336;2023-07-24T08:38:01;97224.22;;;35.89;34.10
34297;BME280;20564;42.902;25.336;2023-07-24T08:40:28;97229.81;;;35.98;33.14
34297;BME280;20564;42.902;25.336;2023-07-24T08:42:56;97221.69;;;35.65;31.43
34297;BME280;20564;42.902;25.336;2023-07-24T08:45:24;97208.72;;;35.85;31.80
34297;BME280;20564;42.902;25.336;2023-07-24T08:47:51;97218.72;;;35.75;30.79
34297;BME280;20564;42.902;25.336;2023-07-24T08:50:18;97216.31;;;35.88;33.16
34297;BME280;20564;42.902;25.336;2023-07-24T08:52:46;97222.19;;;35.81;31.64
34297;BME280;20564;42.902;25.336;2023-07-24T08:55:13;97215.19;;;35.75;34.68
34297;BME280;20564;42.902;25.336;2023-07-24T08:57:41;97215.09;;;35.66;34.44
34297;BME280;20564;42.902;25.336;2023-07-24T09:00:08;97216.22;;;35.46;34.61
34297;BME280;20564;42.902;25.336;2023-07-24T09:02:35;97220.44;;;35.39;34.99
34297;BME280;20564;42.902;25.336;2023-07-24T09:05:03;97210.97;;;35.17;33.58
34297;BME280;20564;42.902;25.336;2023-07-24T09:07:31;97214.81;;;35.16;35.68
34297;BME280;20564;42.902;25.336;2023-07-24T09:09:58;97215.66;;;35.31;35.37
34297;BME280;20564;42.902;25.336;2023-07-24T09:12:24;97206.34;;;35.32;33.82
34297;BME280;20564;42.902;25.336;2023-07-24T09:15:03;97208.25;;;35.50;33.37
34297;BME280;20564;42.902;25.336;2023-07-24T09:17:32;97211.94;;;35.59;31.87
34297;BME280;20564;42.902;25.336;2023-07-24T09:19:59;97212.47;;;35.89;34.69
34297;BME280;20564;42.902;25.336;2023-07-24T09:22:28;97209.38;;;36.09;34.46
34297;BME280;20564;42.902;25.336;2023-07-24T09:24:56;97208.31;;;36.05;30.33
34297;BME280;20564;42.902;25.336;2023-07-24T09:27:28;97204.69;;;36.10;31.17
34297;BME280;20564;42.902;25.336;2023-07-24T09:29:58;97202.75;;;36.10;31.61
34297;BME280;20564;42.902;25.336;2023-07-24T09:32:27;97204.09;;;35.99;31.25
34297;BME280;20564;42.902;25.336;2023-07-24T09:34:55;97200.97;;;35.59;31.52
34297;BME280;20564;42.902;25.336;2023-07-24T09:37:32;97193.47;;;35.32;30.26
34297;BME280;20564;42.902;25.336;2023-07-24T09:40:03;97189.59;;;35.52;28.73
34297;BME280;20564;42.902;25.336;2023-07-24T09:42:37;97185.47;;;35.82;29.43
34297;BME280;20564;42.902;25.336;2023-07-24T09:45:25;97185.19;;;36.11;28.94
34297;BME280;20564;42.902;25.336;2023-07-24T09:47:54;97185.47;;;36.23;30.39
34297;BME280;20564;42.902;25.336;2023-07-24T09:50:29;97180.31;;;36.08;29.15
34297;BME280;20564;42.902;25.336;2023-07-24T09:52:57;97174.00;;;35.94;29.03
34297;BME280;20564;42.902;25.336;2023-07-24T09:55:57;97174.94;;;36.17;31.33
34297;BME280;20564;42.902;25.336;2023-07-24T09:58:25;97172.81;;;36.28;30.24
34297;BME280;20564;42.902;25.336;2023-07-24T10:00:53;97168.63;;;36.30;26.00
34297;BME280;20564;42.902;25.336;2023-07-24T10:03:21;97159.19;;;36.50;24.89
34297;BME280;20564;42.902;25.336;2023-07-24T10:05:49;97164.78;;;36.67;24.94
34297;BME280;20564;42.902;25.336;2023-07-24T10:08:18;97155.41;;;36.82;24.72
34297;BME280;20564;42.902;25.336;2023-07-24T10:10:45;97149.34;;;36.72;25.20
34297;BME280;20564;42.902;25.336;2023-07-24T10:13:13;97153.41;;;36.74;24.14
34297;BME280;20564;42.902;25.336;2023-07-24T10:15:46;97153.16;;;36.84;25.73
34297;BME280;20564;42.902;25.336;2023-07-24T10:18:16;97144.94;;;37.07;26.02
34297;BME280;20564;42.902;25.336;2023-07-24T10:20:44;97144.78;;;37.34;24.97
34297;BME280;20564;42.902;25.336;2023-07-24T10:23:15;97143.72;;;37.44;23.20
34297;BME280;20564;42.902;25.336;2023-07-24T10:25:45;97137.75;;;37.42;23.97
34297;BME280;20564;42.902;25.336;2023-07-24T10:28:12;97139.56;;;37.55;23.23
34297;BME280;20564;42.902;25.336;2023-07-24T10:30:43;97135.53;;;37.53;23.81
34297;BME280;20564;42.902;25.336;2023-07-24T10:33:20;97135.09;;;37.37;23.74
34297;BME280;20564;42.902;25.336;2023-07-24T10:35:53;97131.38;;;37.33;24.78
34297;BME280;20564;42.902;25.336;2023-07-24T10:38:33;97138.22;;;37.44;24.90
34297;BME280;20564;42.902;25.336;2023-07-24T10:41:06;97131.34;;;37.55;25.13
34297;BME280;20564;42.902;25.336;2023-07-24T10:43:45;97128.44;;;37.29;25.74
34297;BME280;20564;42.902;25.336;2023-07-24T10:46:15;97131.91;;;37.12;25.77
34297;BME280;20564;42.902;25.336;2023-07-24T10:48:51;97127.06;;;37.09;25.35
34297;BME280;20564;42.902;25.336;2023-07-24T10:51:18;97128.44;;;36.98;27.57
34297;BME280;20564;42.902;25.336;2023-07-24T10:53:48;97122.66;;;36.86;26.47
34297;BME280;20564;42.902;25.336;2023-07-24T10:56:16;97124.06;;;36.97;27.26
34297;BME280;20564;42.902;25.336;2023-07-24T10:58:43;97122.44;;;36.96;26.27
34297;BME280;20564;42.902;25.336;2023-07-24T11:01:11;97111.56;;;36.91;28.15
34297;BME280;20564;42.902;25.336;2023-07-24T11:03:40;97101.84;;;36.85;26.28
34297;BME280;20564;42.902;25.336;2023-07-24T11:06:18;97105.47;;;36.94;25.97
34297;BME280;20564;42.902;25.336;2023-07-24T11:08:56;97107.09;;;36.95;27.75
34297;BME280;20564;42.902;25.336;2023-07-24T11:11:31;97103.84;;;37.15;27.46
34297;BME280;20564;42.902;25.336;2023-07-24T11:14:01;97105.91;;;37.10;27.06
34297;BME280;20564;42.902;25.336;2023-07-24T11:16:28;97097.97;;;36.86;24.35
34297;BME280;20564;42.902;25.336;2023-07-24T11:18:58;97093.75;;;36.80;24.42
34297;BME280;20564;42.902;25.336;2023-07-24T11:21:25;97091.00;;;36.80;25.17
34297;BME280;20564;42.902;25.336;2023-07-24T11:23:54;97090.81;;;36.76;24.02
34297;BME280;20564;42.902;25.336;2023-07-24T11:26:23;97090.38;;;36.83;25.74
34297;BME280;20564;42.902;25.336;2023-07-24T11:28:51;97095.88;;;36.83;25.35
34297;BME280;20564;42.902;25.336;2023-07-24T11:31:19;97095.59;;;36.93;25.70
34297;BME280;20564;42.902;25.336;2023-07-24T11:33:48;97087.28;;;36.98;26.18
34297;BME280;20564;42.902;25.336;2023-07-24T11:36:16;97083.91;;;37.01;28.15
34297;BME280;20564;42.902;25.336;2023-07-24T11:38:46;97077.91;;;36.99;25.56
34297;BME280;20564;42.902;25.336;2023-07-24T11:41:13;97080.34;;;37.01;26.45
34297;BME280;20564;42.902;25.336;2023-07-24T11:43:49;97076.91;;;36.95;25.36
34297;BME280;20564;42.902;25.336;2023-07-24T11:46:26;97068.16;;;36.93;24.22
34297;BME280;20564;42.902;25.336;2023-07-24T11:48:54;97068.44;;;36.83;24.98
34297;BME280;20564;42.902;25.336;2023-07-24T11:51:25;97065.81;;;36.78;27.25
34297;BME280;20564;42.902;25.336;2023-07-24T11:54:08;97062.81;;;36.88;26.94
34297;BME280;20564;42.902;25.336;2023-07-24T11:56:36;97061.56;;;36.94;26.73
34297;BME280;20564;42.902;25.336;2023-07-24T11:59:10;97060.97;;;36.97;27.94
34297;BME280;20564;42.902;25.336;2023-07-24T12:01:38;97056.75;;;37.00;26.22
34297;BME280;20564;42.902;25.336;2023-07-24T12:04:06;97050.22;;;36.87;24.65
34297;BME280;20564;42.902;25.336;2023-07-24T12:06:33;97054.84;;;36.78;23.83
34297;BME280;20564;42.902;25.336;2023-07-24T12:09:04;97053.09;;;36.59;24.04
34297;BME280;20564;42.902;25.336;2023-07-24T12:11:32;97051.69;;;36.62;24.33
34297;BME280;20564;42.902;25.336;2023-07-24T12:13:59;97053.38;;;36.35;25.18
34297;BME280;20564;42.902;25.336;2023-07-24T12:16:27;97054.75;;;36.46;25.47
34297;BME280;20564;42.902;25.336;2023-07-24T12:18:54;97051.34;;;36.63;26.06
34297;BME280;20564;42.902;25.336;2023-07-24T12:21:22;97051.53;;;36.67;23.37
34297;BME280;20564;42.902;25.336;2023-07-24T12:23:48;97049.56;;;36.22;21.32
34297;BME280;20564;42.902;25.336;2023-07-24T12:26:15;97050.50;;;36.18;24.21
34297;BME280;20564;42.902;25.336;2023-07-24T12:28:42;97042.22;;;36.32;23.25
34297;BME280;20564;42.902;25.336;2023-07-24T12:31:09;97042.63;;;36.39;22.12
34297;BME280;20564;42.902;25.336;2023-07-24T12:33:36;97046.50;;;36.60;25.04
34297;BME280;20564;42.902;25.336;2023-07-24T12:36:03;97042.75;;;36.79;23.81
34297;BME280;20564;42.902;25.336;2023-07-24T12:38:30;97042.63;;;36.84;23.10
34297;BME280;20564;42.902;25.336;2023-07-24T12:40:57;97044.59;;;36.92;22.91
34297;BME280;20564;42.902;25.336;2023-07-24T12:43:24;97034.75;;;36.91;21.76
34297;BME280;20564;42.902;25.336;2023-07-24T12:45:51;97045.41;;;36.92;23.83
34297;BME280;20564;42.902;25.336;2023-07-24T12:48:18;97031.38;;;36.94;23.40
34297;BME280;20564;42.902;25.336;2023-07-24T12:50:46;97029.50;;;37.03;22.48
34297;BME280;20564;42.902;25.336;2023-07-24T12:53:12;97031.16;;;37.04;21.76
34297;BME280;20564;42.902;25.336;2023-07-24T12:55:50;97025.34;;;37.14;21.44
34297;BME280;20564;42.902;25.336;2023-07-24T12:58:16;97025.66;;;37.04;21.29
34297;BME280;20564;42.902;25.336;2023-07-24T13:00:43;97023.53;;;37.01;23.13